Tesouro, Brazil
Current Conditions -  °F | °C
As of 4:00 PM on Thursday 23 Oct 2014 (Local Time) from SBBW Reporting Station
Few Clouds Few Clouds  
Wind Chill: 88°   Ceiling: Unl
Heat Index: 93°   Visibility: 6mi
Dew Point: 70°   Wind: 6mph
Humidity: 55%   Direction: 90°E
Pressure: 29.88"   Gusts: NA
Location:  16.08°S, 53.55°W
Report Text: SBBW 231900Z 09005KT 9999 FEW020 31/21 Q1012
Loading
Personal Weather Stations






























Interactive Weather Map
Tropical Storm Tracking
New forecast layout! Learn more

10-Day Weather Forecast

Advertisements
Track Severe Weather on mobile